• Join FlightAware (Why Join?)
  • Login
  • US Flag 
06:44AM EST


 

Airport Tracker/Info


-or-


 

Live Flight TrackerFlight Track Log ✈ JIA2373 ✈ 15-Jun-2013 ✈ KDAY - KCLT

Flight Track Log - Related Links

Times and Time Zones

All times are in EDT time to prevent confusion due to time zone crossing. See the JIA2373 flight status page for this flight to view local times or setup timezone preferences in your user account.

Time Position Orientation Groundspeed Altitude Reporting Facility
EDT Latitude Longitude Course Direction KTS MPH feet Rate Location/Type
06:33PM 39.8964 -84.2442 180° South 162 186 1,600  Level Indianapolis Center
06:34PM 39.8700 -84.2867 231° Southwest 185 213 3,300 2,100 Climbing Indianapolis Center
06:34PM 39.8594 -84.3025 229° Southwest 205 236 4,100 2,340 Climbing Indianapolis Center
06:35PM 39.6832 -84.5694 228° Southwest  Level FlightAware Approximate
06:35PM 39.8217 -84.3692 234° Southwest 217 250 6,500  Level Indianapolis Center
06:36PM 39.6183 -84.6958 243° Southwest  Level FlightAware Approximate
06:36PM 39.7750 -84.4467 232° Southwest 258 297 9,500  Level Indianapolis Center
06:37PM 39.5023 -84.7000 180° South  Level FlightAware Approximate
06:37PM 39.7283 -84.5233 232° Southwest 267 307 12,000  Level Indianapolis Center
06:38PM 39.3844 -84.7000 180° South  Level FlightAware Approximate
06:38PM 39.6800 -84.6044 232° Southwest 279 321 14,300  Level Indianapolis Center
06:39PM 39.6281 -84.6864 231° Southwest 290 334 16,400 1,620 Climbing Indianapolis Center
06:40PM 39.5375 -84.7025 188° South 335 386 17,700 960 Climbing Indianapolis Center
06:41PM 39.4356 -84.7036 180° South 360 414 18,400 720 Climbing Indianapolis Center
06:42PM 39.3256 -84.7042 180° South 385 443 19,200 780 Climbing Indianapolis Center
06:43PM 39.2122 -84.7033 180° South 402 463 20,100 960 Climbing Indianapolis Center
06:44PM 39.0772 -84.7025 180° South 409 471 21,200 960 Climbing Indianapolis Center
06:45PM 38.9686 -84.6503 160° South 436 502 22,100 900 Climbing Indianapolis Center
06:46PM 38.8792 -84.5547 140° Southeast 435 501 23,100 840 Climbing Indianapolis Center
06:47PM 38.7786 -84.4497 141° Southeast 445 512 23,900 600 Climbing Indianapolis Center
06:48PM 38.6819 -84.3469 140° Southeast 448 516 24,400 540 Climbing Indianapolis Center
06:49PM 38.5856 -84.2453 140° Southeast 449 517 25,000 240 Climbing Indianapolis Center
06:50PM 38.4850 -84.1425 141° Southeast 459 528 25,000  Level Indianapolis Center
06:51PM 38.3811 -84.0375 142° Southeast 471 542 25,000  Level Indianapolis Center
06:52PM 38.2756 -83.9322 142° Southeast 479 551 25,000  Level Indianapolis Center
06:53PM 38.1708 -83.8261 141° Southeast 479 551 25,000  Level Indianapolis Center
06:54PM 38.0483 -83.7006 141° Southeast 481 554 25,000  Level Indianapolis Center
06:55PM 37.9428 -83.5958 142° Southeast 480 552 25,000  Level Indianapolis Center
06:56PM 37.8367 -83.4911 142° Southeast 481 554 25,000  Level Indianapolis Center
06:57PM 37.7322 -83.3861 141° Southeast 479 551 25,000  Level Indianapolis Center
06:58PM 37.6272 -83.2814 142° Southeast 480 552 25,000  Level Indianapolis Center
06:59PM 37.5214 -83.1778 142° Southeast 480 552 25,000  Level Indianapolis Center
07:00PM 37.4161 -83.0761 143° Southeast 477 549 25,000  Level Indianapolis Center
07:01PM 37.3089 -82.9703 142° Southeast 483 556 25,000  Level Indianapolis Center
07:02PM 37.2022 -82.8661 142° Southeast 483 556 25,000  Level Indianapolis Center
07:03PM 37.0947 -82.7603 142° Southeast 484 557 25,000  Level Indianapolis Center
07:04PM 36.9828 -82.6608 145° Southeast 484 557 25,000  Level Indianapolis Center
07:05PM 36.8678 -82.5706 148° Southeast 480 552 25,000 -300 Level Indianapolis Center
07:07PM 36.7542 -82.4806 148° Southeast 480 552 24,500 -540 Descending Indianapolis Center
07:08PM 36.6419 -82.3919 148° Southeast 476 548 24,000 -420 Descending Indianapolis Center
07:08PM 36.6017 -82.3606 148° Southeast 479 551 24,000  Level Atlanta Center
07:09PM 36.4897 -82.2750 148° Southeast 479 551 24,000  Level Atlanta Center
07:10PM 36.3822 -82.1897 147° Southeast 474 545 24,000  Level Atlanta Center
07:11PM 36.2744 -82.1047 148° Southeast 474 545 24,000 -960 Level Atlanta Center
07:12PM 36.1669 -82.0222 148° Southeast 463 533 22,100 -2,160 Descending Atlanta Center
07:13PM 36.0483 -81.9278 147° Southeast 463 533 19,700 -2,340 Descending Atlanta Center
07:14PM 35.9447 -81.8483 148° Southeast 456 525 17,500 -2,340 Descending Atlanta Center
07:15PM 35.8433 -81.7717 148° Southeast 446 513 15,100 -2,520 Descending Atlanta Center
07:15PM 35.8136 -81.7494 149° Southeast 426 490 14,300 -2,340 Descending Atlanta Center
07:16PM 35.7458 -81.6950 147° Southeast 429 494 12,800 -2,160 Descending Atlanta Center
07:16PM 35.6889 -81.6533 149° Southeast 409 471 11,500 -1,800 Descending Atlanta Center
07:17PM 35.6486 -81.6236 149° Southeast 422 486 11,000 -660 Descending Atlanta Center
07:17PM 35.6103 -81.5864 142° Southeast 354 407 10,900  Descending Atlanta Center
07:18PM 35.5803 -81.5492 135° Southeast 374 430 11,000 -120 Climbing Atlanta Center
07:18PM 35.5500 -81.4914 123° Southeast 296 341 10,800 -600 Descending Atlanta Center
07:19PM 35.5408 -81.4583 109° East 316 364 10,400 -1,380 Descending Atlanta Center
07:19PM 35.5269 -81.3900 104° East 301 346 9,400 -1,440 Descending Atlanta Center
07:20PM 35.5200 -81.3569 104° East 303 349 9,000 -1,200 Descending Atlanta Center
07:21PM 35.5081 -81.2911 103° East 306 352 8,200 -1,200 Descending Atlanta Center
07:21PM 35.5011 -81.2556 103° East 303 349 7,800 -1,320 Descending Atlanta Center
07:22PM 35.4869 -81.1922 105° East 302 348 6,900 -1,320 Descending Atlanta Center
07:22PM 35.4800 -81.1569 104° East 298 343 6,500 -1,500 Descending Atlanta Center
07:23PM 35.4703 -81.0961 101° East 282 325 5,400 -1,620 Descending Atlanta Center
07:23PM 35.4611 -81.0633 109° East 288 331 4,900 -1,500 Descending Atlanta Center
07:24PM 35.4328 -81.0208 129° Southeast 263 303 3,900 -1,200 Descending Atlanta Center
07:24PM 35.4156 -80.9986 134° Southeast 261 300 3,700 -720 Descending Atlanta Center